Lester B. Pearson International Airport
CYYZ : now visible

Airfield :











YOU CAN JOIN US ON...

 
LOGIN :

Register | Disclaimer

   EN    FR    IT 

 









Legend :    VFR   Marginal VFR   IFR   Intensive IFR   Very Intensive IFR
Visi :
Ceiling :
>= 8 km
>= 3000ft
5 to 8 km
1000 to 3000 ft
1500m to 5 km
500 to 1000 ft
800 to 1500m
200 to 500 ft
< 800m
< 200 ft
Symbols :   Thunderstorms  Fog  Heavy snow  Heavy precipitations  Wind > 20 kt







- Airport Elevation : 569 ft
- IATA code : YYZ


CYYZ - Lester B. Pearson International

CURRENT METAR :
  • 201500Z 15008G15KT 110V180 12SM FEW050 FEW120 SCT210 BKN260 21/16 A3021 RMK SC1AC1CC3CI2 SC TR SLP230 DENSITY ALT 1200FT

EXPIRED METARs :
  • 201300Z 13003KT 10SM FEW180 BKN240 18/15 A3020 RMK AC2CI3 SLP230 DENSITY ALT 700FT

TAF TAF CYYZ
Valid from the 20 at 15:00 until the 21 at 18:00 UTC


201440Z 2015/2118 16010KT P6SM FEW050 SCT220
FM210100 VRB03KT P6SM SCT200
FM211500 16005KT P6SM BKN050 RMK NXT FCST BY 201800Z
No reported NOTAMs for that airfield.



MET'MAP, your aeronautical weather chart ! - Copyright ORBIFLY December 2007 - Disclaimer

ORBIFLY MET'MAP TEAM :

Programming & Development : Alexandra Zaïnal
Concept & Development : Baudouin d'Aumeries
Co-Development & Prog : Marc-Olivier Méhu
Technical & hardware support : Manuel Goepfert

Contact : metmap@orbifly.com




SOURCES & CREDITS :

   NOAA       Earth
Advisory